createdAt,value
2022-10-18T00:02:09.841Z,68.72
2022-10-18T00:04:36.357Z,79.18
2022-10-18T00:07:02.771Z,70.60
2022-10-18T00:09:29.285Z,72.15
2022-10-18T00:11:56.345Z,57.80
2022-10-18T00:14:22.610Z,64.88
2022-10-18T00:16:48.893Z,50.15
2022-10-18T00:19:15.219Z,77.22
2022-10-18T00:21:41.537Z,93.90
2022-10-18T00:24:08.002Z,64.18
2022-10-18T00:26:34.347Z,70.93
2022-10-18T00:29:02.487Z,70.18
2022-10-18T00:31:30.314Z,66.35
2022-10-18T00:33:57.737Z,77.72
2022-10-18T00:36:24.577Z,142.30
2022-10-18T00:38:51.457Z,156.68
2022-10-18T00:41:19.159Z,164.48
2022-10-18T00:43:51.214Z,102.68
2022-10-18T00:46:17.479Z,152.38
2022-10-18T00:48:43.826Z,236.05
2022-10-18T00:51:10.169Z,143.40
2022-10-18T00:53:36.663Z,132.40
2022-10-18T00:56:02.957Z,156.10
2022-10-18T00:58:29.297Z,82.82
2022-10-18T01:00:55.567Z,100.18
2022-10-18T01:03:21.989Z,82.32
2022-10-18T01:05:48.415Z,44.55
2022-10-18T01:08:23.503Z,143.52
2022-10-18T01:10:59.190Z,123.35
2022-10-18T01:13:28.303Z,98.55
2022-10-18T01:15:57.785Z,121.40
2022-10-18T01:18:35.307Z,161.13
2022-10-18T01:21:15.294Z,220.45
2022-10-18T01:24:20.103Z,186.50
2022-10-18T01:27:04.856Z,260.93
2022-10-18T01:29:31.111Z,296.42
2022-10-18T01:31:59.654Z,335.88
2022-10-18T01:34:26.949Z,223.23
2022-10-18T01:36:55.809Z,315.48
2022-10-18T01:39:24.290Z,380.80
2022-10-18T01:41:51.832Z,395.75
2022-10-18T01:44:20.845Z,557.28
2022-10-18T01:46:47.490Z,179.15
2022-10-18T01:54:06.206Z,118.38
2022-10-18T01:56:39.152Z,368.40
2022-10-18T01:59:24.269Z,197.18
2022-10-18T02:01:59.759Z,253.35
2022-10-18T02:04:26.059Z,275.20
2022-10-18T02:06:55.141Z,185.50
2022-10-18T02:09:27.653Z,67.68
2022-10-18T02:11:54.886Z,382.60
2022-10-18T02:14:23.256Z,130.70
2022-10-18T02:16:51.682Z,206.38
2022-10-18T02:21:57.327Z,228.85
2022-10-18T02:24:25.714Z,326.00
2022-10-18T02:26:51.991Z,442.67
2022-10-18T02:29:18.298Z,284.35
2022-10-18T02:31:46.076Z,299.85
2022-10-18T02:34:18.410Z,157.98
2022-10-18T02:36:52.518Z,229.98
2022-10-18T02:39:21.075Z,153.30
2022-10-18T02:41:47.431Z,138.50
2022-10-18T02:44:13.719Z,78.95
2022-10-18T02:46:40.224Z,33.67
2022-10-18T02:49:06.556Z,71.90
2022-10-18T02:51:32.863Z,159.88
2022-10-18T02:53:59.194Z,85.45
2022-10-18T02:56:25.466Z,164.25
2022-10-18T02:58:51.739Z,74.30
2022-10-18T03:01:18.051Z,208.50
2022-10-18T03:03:44.410Z,198.77
2022-10-18T03:06:10.674Z,126.03
2022-10-18T03:08:36.941Z,221.63
2022-10-18T03:11:03.285Z,215.27
2022-10-18T03:16:00.960Z,299.25
2022-10-18T03:18:27.246Z,351.25
2022-10-18T03:20:53.501Z,201.82
2022-10-18T03:23:19.759Z,295.40
2022-10-18T03:25:46.483Z,124.18
2022-10-18T03:28:13.060Z,51.63
2022-10-18T03:30:39.347Z,98.45
2022-10-18T03:33:05.962Z,80.53
2022-10-18T03:37:58.475Z,145.27
2022-10-18T03:40:24.790Z,227.88
2022-10-18T03:42:51.090Z,279.98
2022-10-18T03:45:17.422Z,188.15
2022-10-18T03:47:43.712Z,54.20
2022-10-18T03:50:09.993Z,100.50
2022-10-18T03:52:36.407Z,74.20
2022-10-18T03:55:02.851Z,38.25
2022-10-18T03:57:29.137Z,37.80
2022-10-18T03:59:55.392Z,21.85
2022-10-18T04:02:21.660Z,17.83
2022-10-18T04:04:48.209Z,18.10
2022-10-18T04:07:14.492Z,18.15
2022-10-18T04:09:40.779Z,14.30
2022-10-18T04:12:07.060Z,87.78
2022-10-18T04:14:33.397Z,30.42
2022-10-18T04:16:59.686Z,50.55
2022-10-18T04:19:26.118Z,69.63
2022-10-18T04:21:52.383Z,29.17
2022-10-18T04:24:18.946Z,46.08
2022-10-18T04:26:45.307Z,56.35
2022-10-18T04:29:11.617Z,65.22
2022-10-18T04:31:37.963Z,46.83
2022-10-18T04:34:04.407Z,39.42
2022-10-18T04:36:31.455Z,88.03
2022-10-18T04:38:57.723Z,55.70
2022-10-18T04:41:23.983Z,51.08
2022-10-18T04:43:50.247Z,223.15
2022-10-18T04:46:16.601Z,243.15
2022-10-18T04:48:42.883Z,338.17
2022-10-18T04:51:09.160Z,358.63
2022-10-18T04:53:35.457Z,484.70
2022-10-18T04:56:01.863Z,378.10
2022-10-18T04:58:28.210Z,617.05
2022-10-18T05:00:54.504Z,471.10
2022-10-18T05:03:20.838Z,139.25
2022-10-18T05:06:01.436Z,376.50
2022-10-18T05:08:28.964Z,418.10
2022-10-18T05:10:55.266Z,209.30
2022-10-18T05:13:21.543Z,365.27
2022-10-18T05:15:47.803Z,185.70
2022-10-18T05:18:14.057Z,158.88
2022-10-18T05:20:40.329Z,152.05
2022-10-18T05:23:06.773Z,281.17
2022-10-18T05:25:33.033Z,207.80
2022-10-18T05:28:03.441Z,113.35
2022-10-18T05:30:37.921Z,169.30
2022-10-18T05:33:04.249Z,187.60
2022-10-18T05:35:30.519Z,231.65
2022-10-18T05:37:56.818Z,128.82
2022-10-18T05:40:23.098Z,210.57
2022-10-18T05:42:52.472Z,253.45
2022-10-18T05:45:18.959Z,177.60
2022-10-18T05:47:45.247Z,176.73
2022-10-18T05:50:11.510Z,212.65
2022-10-18T05:52:37.779Z,232.80
2022-10-18T05:55:04.203Z,72.47
2022-10-18T05:57:30.974Z,201.63
2022-10-18T05:59:57.411Z,350.88
2022-10-18T06:02:23.714Z,302.52
2022-10-18T06:04:50.023Z,364.58
2022-10-18T06:07:16.394Z,135.38
2022-10-18T06:09:42.891Z,341.30
2022-10-18T06:12:09.212Z,100.22
2022-10-18T06:14:36.567Z,161.85
2022-10-18T06:17:03.152Z,164.63
2022-10-18T06:21:55.634Z,153.65
2022-10-18T06:24:21.929Z,138.07
2022-10-18T06:26:48.345Z,97.50
2022-10-18T06:29:14.715Z,96.05
2022-10-18T06:31:41.155Z,82.80
2022-10-18T06:34:07.403Z,86.72
2022-10-18T06:36:33.871Z,178.68
2022-10-18T06:39:00.195Z,117.75
2022-10-18T06:41:26.484Z,82.95
2022-10-18T06:43:54.930Z,210.90
2022-10-18T06:46:21.193Z,249.88
2022-10-18T06:48:47.487Z,70.78
2022-10-18T06:51:15.071Z,128.32
2022-10-18T06:53:44.444Z,300.58
2022-10-18T06:56:25.189Z,267.35
2022-10-18T06:58:51.488Z,349.70
2022-10-18T07:01:18.195Z,390.65
2022-10-18T07:06:12.085Z,249.50
2022-10-18T07:08:38.772Z,185.63
2022-10-18T07:13:33.120Z,106.20
2022-10-18T07:16:07.210Z,164.55
2022-10-18T07:18:34.481Z,53.65
2022-10-18T07:21:04.892Z,61.17
2022-10-18T07:23:34.799Z,59.30
2022-10-18T07:26:01.894Z,31.80
2022-10-18T07:28:28.577Z,24.30
2022-10-18T07:30:54.992Z,19.80
2022-10-18T07:33:21.291Z,18.35
2022-10-18T07:35:47.773Z,16.17
2022-10-18T07:38:14.097Z,12.27
2022-10-18T07:40:40.361Z,17.13
2022-10-18T07:43:10.213Z,17.67
2022-10-18T07:48:09.490Z,115.25
2022-10-18T07:50:36.370Z,47.83
2022-10-18T07:53:02.702Z,50.53
2022-10-18T07:55:29.000Z,54.22
2022-10-18T07:57:55.263Z,17.67
2022-10-18T08:00:21.557Z,19.77
2022-10-18T08:02:47.819Z,19.75
2022-10-18T08:05:14.082Z,13.25
2022-10-18T08:07:40.374Z,13.60
2022-10-18T08:10:06.827Z,13.48
2022-10-18T08:12:33.099Z,13.80
2022-10-18T08:14:59.358Z,12.32
2022-10-18T08:17:25.634Z,11.30
2022-10-18T08:20:04.811Z,14.18
2022-10-18T08:22:38.171Z,10.55
2022-10-18T08:25:04.639Z,14.00
2022-10-18T08:27:31.218Z,12.63
2022-10-18T08:29:59.784Z,11.35
2022-10-18T08:32:27.343Z,16.20
2022-10-18T08:34:53.732Z,8.40
2022-10-18T08:37:20.230Z,13.25
2022-10-18T08:39:46.494Z,10.38
2022-10-18T08:42:19.895Z,12.00
2022-10-18T08:44:50.314Z,10.70
2022-10-18T08:47:20.957Z,9.23
2022-10-18T08:49:51.641Z,9.98
2022-10-18T08:52:28.130Z,9.90
2022-10-18T08:55:02.530Z,9.35
2022-10-18T08:57:30.307Z,8.20
2022-10-18T08:59:56.877Z,11.20
2022-10-18T09:02:38.622Z,9.27
2022-10-18T09:05:04.873Z,13.05
2022-10-18T09:07:51.609Z,8.60
2022-10-18T09:10:36.476Z,10.55
2022-10-18T09:13:21.718Z,13.35
2022-10-18T09:15:51.715Z,8.95
2022-10-18T09:18:17.978Z,9.93
2022-10-18T09:20:44.287Z,11.15
2022-10-18T09:23:16.753Z,7.97
2022-10-18T09:25:47.717Z,15.30
2022-10-18T09:28:24.021Z,12.80
2022-10-18T09:31:02.534Z,11.13
2022-10-18T09:33:34.931Z,13.77
2022-10-18T09:36:03.100Z,11.23
2022-10-18T09:38:31.497Z,10.52
2022-10-18T09:41:04.441Z,10.80
2022-10-18T09:43:38.561Z,8.90
2022-10-18T09:46:05.896Z,9.27
2022-10-18T09:48:43.439Z,8.32
2022-10-18T09:51:12.448Z,7.60
2022-10-18T09:53:42.694Z,7.18
2022-10-18T09:56:15.070Z,6.22
2022-10-18T09:58:48.383Z,9.82
2022-10-18T10:01:16.386Z,10.23
2022-10-18T10:03:42.861Z,10.38
2022-10-18T10:08:35.419Z,7.25
2022-10-18T10:11:01.714Z,11.95
2022-10-18T10:13:28.055Z,7.93
2022-10-18T10:16:02.020Z,9.18
2022-10-18T10:18:33.059Z,9.20
2022-10-18T10:21:05.602Z,9.45
2022-10-18T10:23:50.948Z,6.72
2022-10-18T10:26:24.807Z,7.90
2022-10-18T10:28:51.350Z,10.32
2022-10-18T10:31:34.036Z,8.80
2022-10-18T10:34:01.858Z,7.97
2022-10-18T10:36:28.694Z,10.90
2022-10-18T11:11:32.588Z,4.43
2022-10-18T11:14:25.907Z,6.25
2022-10-18T11:17:12.096Z,7.53
2022-10-18T11:19:57.114Z,7.30
2022-10-18T11:22:25.456Z,5.97
2022-10-18T11:24:51.737Z,5.05
2022-10-18T11:27:21.434Z,9.88
2022-10-18T11:30:02.780Z,4.65
2022-10-18T11:32:41.846Z,7.72
2022-10-18T11:35:16.384Z,6.10
2022-10-18T11:37:46.181Z,7.32
2022-10-18T11:40:26.016Z,6.50
2022-10-18T11:42:52.250Z,7.90
2022-10-18T11:48:20.058Z,7.85
2022-10-18T11:50:46.345Z,5.07
2022-10-18T11:53:15.589Z,5.45
2022-10-18T11:55:46.282Z,6.18
2022-10-18T11:58:20.154Z,5.05
2022-10-18T12:00:46.417Z,6.07
2022-10-18T12:03:20.035Z,6.22
2022-10-18T12:05:48.541Z,4.60
2022-10-18T12:08:16.940Z,5.70
2022-10-18T12:11:04.043Z,5.68
2022-10-18T12:13:46.835Z,4.85
2022-10-18T12:16:13.831Z,4.82
2022-10-18T12:21:25.267Z,6.07
2022-10-18T12:23:57.387Z,4.88
2022-10-18T12:26:24.827Z,8.65
2022-10-18T12:28:58.708Z,5.28
2022-10-18T12:31:27.647Z,7.32
2022-10-18T12:33:58.499Z,5.63
2022-10-18T12:36:39.596Z,5.32
2022-10-18T12:39:08.670Z,5.53
2022-10-18T12:41:35.649Z,5.60
2022-10-18T12:44:04.174Z,5.25
2022-10-18T12:46:46.942Z,4.63
2022-10-18T12:49:13.979Z,4.28
2022-10-18T12:51:53.786Z,4.47
2022-10-18T12:54:46.099Z,4.80
2022-10-18T12:57:32.849Z,4.65
2022-10-18T12:59:59.239Z,6.00
2022-10-18T13:02:26.707Z,4.43
2022-10-18T13:04:53.070Z,3.15
2022-10-18T13:07:33.574Z,4.60
2022-10-18T13:10:15.047Z,6.30
2022-10-18T13:13:00.306Z,7.28
2022-10-18T13:15:34.551Z,5.10
2022-10-18T13:18:06.728Z,5.57
2022-10-18T13:20:38.334Z,6.05
2022-10-18T13:26:04.200Z,6.50
2022-10-18T13:28:50.794Z,5.68
2022-10-18T13:31:29.363Z,5.03
2022-10-18T13:33:55.830Z,5.00
2022-10-18T13:36:25.970Z,6.07
2022-10-18T13:38:58.248Z,5.07
2022-10-18T13:41:34.300Z,5.03
2022-10-18T13:44:37.297Z,4.72
2022-10-18T13:47:03.544Z,4.40
2022-10-18T13:49:29.807Z,11.38
2022-10-18T13:52:05.263Z,5.28
2022-10-18T13:54:59.002Z,4.68
2022-10-18T13:57:45.583Z,8.97
2022-10-18T14:00:20.898Z,3.72
2022-10-18T14:02:59.668Z,5.35
2022-10-18T14:05:29.145Z,4.00
2022-10-18T14:08:01.425Z,3.65
2022-10-18T14:11:01.431Z,4.07
2022-10-18T14:13:37.097Z,4.68
2022-10-18T14:16:06.209Z,7.20
2022-10-18T14:18:34.590Z,7.80
2022-10-18T14:21:13.722Z,3.38
2022-10-18T14:23:44.920Z,4.90
2022-10-18T14:26:18.349Z,4.32
2022-10-18T14:28:59.518Z,4.55
2022-10-18T14:31:26.633Z,7.07
2022-10-18T14:33:57.308Z,6.25
2022-10-18T14:36:25.722Z,6.72
2022-10-18T14:38:51.954Z,6.25
2022-10-18T14:43:44.791Z,7.00
2022-10-18T14:46:16.530Z,4.90
2022-10-18T14:48:42.951Z,5.55
2022-10-18T14:51:10.079Z,5.47
2022-10-18T14:53:38.211Z,6.43
2022-10-18T14:56:05.173Z,7.18
2022-10-18T14:58:32.373Z,4.82
2022-10-18T15:00:59.241Z,9.40
2022-10-18T15:03:28.164Z,7.07
2022-10-18T15:06:01.985Z,9.00
2022-10-18T15:08:41.290Z,8.35
2022-10-18T15:11:10.613Z,8.38
2022-10-18T15:13:44.346Z,7.43
2022-10-18T15:16:20.976Z,6.95
2022-10-18T15:19:00.239Z,5.50
2022-10-18T15:21:26.874Z,7.15
2022-10-18T15:23:54.859Z,6.20
2022-10-18T15:26:30.612Z,8.05
2022-10-18T15:29:01.439Z,11.35
2022-10-18T15:31:35.227Z,7.13
2022-10-18T15:34:09.803Z,9.40
2022-10-18T15:36:36.997Z,6.65
2022-10-18T15:39:04.503Z,8.75
2022-10-18T15:41:56.903Z,6.55
2022-10-18T15:44:26.007Z,9.70
2022-10-18T15:46:56.726Z,11.15
2022-10-18T15:49:41.979Z,8.20
2022-10-18T15:52:08.371Z,4.82
2022-10-18T15:54:34.756Z,8.43
2022-10-18T15:57:06.900Z,9.52
2022-10-18T15:59:33.257Z,6.70
2022-10-18T16:01:59.615Z,4.78
2022-10-18T16:04:27.222Z,8.73
2022-10-18T16:06:55.405Z,7.57
2022-10-18T16:09:22.670Z,8.25
2022-10-18T16:11:56.680Z,7.60
2022-10-18T16:14:23.838Z,10.55
2022-10-18T16:16:52.452Z,7.45
2022-10-18T16:19:18.829Z,9.40
2022-10-18T16:21:45.581Z,5.93
2022-10-18T16:24:12.115Z,8.15
2022-10-18T16:29:04.948Z,5.50
2022-10-18T16:31:33.198Z,10.50
2022-10-18T16:34:00.163Z,9.50
2022-10-18T16:36:28.944Z,7.60
2022-10-18T16:38:55.902Z,8.15
2022-10-18T16:41:22.190Z,6.85
2022-10-18T16:43:49.057Z,9.88
2022-10-18T16:46:17.286Z,6.38
2022-10-18T16:48:43.930Z,7.43
2022-10-18T16:51:10.653Z,9.10
2022-10-18T16:53:37.070Z,12.27
2022-10-18T16:56:04.304Z,9.32
2022-10-18T16:58:31.236Z,8.77
2022-10-18T17:00:58.061Z,10.90
2022-10-18T17:03:24.478Z,7.13
2022-10-18T17:05:50.818Z,10.75
2022-10-18T17:08:19.397Z,7.45
2022-10-18T17:10:46.632Z,10.65
2022-10-18T17:13:12.924Z,8.55
2022-10-18T17:15:42.445Z,10.02
2022-10-18T17:18:15.595Z,7.90
2022-10-18T17:20:42.902Z,7.75
2022-10-18T17:23:09.835Z,8.38
2022-10-18T17:25:42.859Z,6.50
2022-10-18T17:28:18.698Z,9.18
2022-10-18T17:30:45.018Z,8.95
2022-10-18T17:33:11.907Z,8.32
2022-10-18T17:35:38.422Z,10.88
2022-10-18T17:38:05.309Z,8.95
2022-10-18T17:40:32.037Z,8.43
2022-10-18T17:42:59.053Z,9.48
2022-10-18T17:45:26.850Z,7.85
2022-10-18T17:47:54.346Z,8.48
2022-10-18T17:50:20.812Z,8.38
2022-10-18T17:52:47.453Z,10.20
2022-10-18T17:57:40.993Z,10.55
2022-10-18T18:00:09.003Z,11.48
2022-10-18T18:02:41.089Z,11.13
2022-10-18T18:05:08.960Z,10.35
2022-10-18T18:07:35.316Z,7.78
2022-10-18T18:10:01.592Z,8.20
2022-10-18T18:12:27.886Z,10.73
2022-10-18T18:14:54.147Z,6.45
2022-10-18T18:17:28.659Z,5.25
2022-10-18T18:20:00.530Z,8.50
2022-10-18T18:22:26.806Z,9.77
2022-10-18T18:24:53.081Z,14.93
2022-10-18T18:27:19.354Z,10.95
2022-10-18T18:29:45.684Z,13.57
2022-10-18T18:32:12.025Z,15.32
2022-10-18T18:34:40.428Z,17.33
2022-10-18T18:37:07.268Z,15.02
2022-10-18T18:39:38.755Z,10.23
2022-10-18T18:42:05.174Z,18.83
2022-10-18T18:44:32.158Z,11.77
2022-10-18T18:46:58.798Z,7.45
2022-10-18T18:51:53.602Z,10.00
2022-10-18T18:54:21.883Z,7.70
2022-10-18T18:56:48.257Z,6.50
2022-10-18T18:59:15.274Z,6.75
2022-10-18T19:01:42.215Z,5.85
2022-10-18T19:04:09.188Z,8.38
2022-10-18T19:06:37.666Z,5.78
2022-10-18T19:09:07.062Z,6.00
2022-10-18T19:11:34.595Z,11.35
2022-10-18T19:14:01.244Z,6.32
2022-10-18T19:18:59.823Z,14.95
2022-10-18T19:21:27.922Z,13.80
2022-10-18T19:23:55.958Z,9.15
2022-10-18T19:26:25.189Z,7.32
2022-10-18T19:28:51.527Z,8.95
2022-10-18T19:31:17.857Z,5.97
2022-10-18T19:33:48.423Z,9.40
2022-10-18T19:36:25.006Z,11.32
2022-10-18T19:38:51.315Z,5.63
2022-10-18T19:41:17.646Z,5.88
2022-10-18T19:43:43.959Z,5.68
2022-10-18T19:46:11.098Z,5.93
2022-10-18T19:48:37.392Z,8.50
2022-10-18T19:51:09.342Z,6.68
2022-10-18T19:53:36.182Z,7.20
2022-10-18T19:56:03.421Z,6.97
2022-10-18T19:58:29.766Z,7.72
2022-10-18T20:00:56.469Z,10.05
2022-10-18T20:03:25.655Z,6.80
2022-10-18T20:05:59.686Z,5.97
2022-10-18T20:08:27.003Z,6.95
2022-10-18T20:10:53.622Z,7.72
2022-10-18T20:13:20.182Z,4.60
2022-10-18T20:15:47.602Z,5.10
2022-10-18T20:18:14.086Z,5.00
2022-10-18T20:20:43.351Z,7.57
2022-10-18T20:23:12.266Z,12.82
2022-10-18T20:25:38.906Z,4.80
2022-10-18T20:28:05.447Z,6.20
2022-10-18T20:30:31.777Z,9.30
2022-10-18T20:32:58.411Z,8.07
2022-10-18T20:35:24.707Z,5.45
2022-10-18T20:37:50.978Z,10.13
2022-10-18T20:40:17.318Z,9.13
2022-10-18T20:42:43.635Z,13.55
2022-10-18T20:45:12.883Z,10.73
2022-10-18T20:47:39.192Z,7.75
2022-10-18T20:50:05.631Z,7.28
2022-10-18T20:52:31.929Z,11.57
2022-10-18T20:54:58.231Z,12.63
2022-10-18T20:57:24.515Z,13.07
2022-10-18T20:59:50.799Z,11.38
2022-10-18T21:02:17.074Z,9.10
2022-10-18T21:04:43.341Z,12.20
2022-10-18T21:07:09.598Z,8.25
2022-10-18T21:09:35.927Z,10.38
2022-10-18T21:12:02.361Z,7.25
2022-10-18T21:14:28.754Z,7.38
2022-10-18T21:16:55.053Z,9.68
2022-10-18T21:19:22.849Z,10.23
2022-10-18T21:21:50.381Z,6.07
2022-10-18T21:24:17.774Z,7.57
2022-10-18T21:26:44.426Z,4.63
2022-10-18T21:31:38.990Z,6.90
2022-10-18T21:34:06.572Z,5.18
2022-10-18T21:36:34.000Z,9.85
2022-10-18T21:39:00.260Z,5.93
2022-10-18T21:41:26.545Z,6.15
2022-10-18T21:43:53.930Z,5.32
2022-10-18T21:46:21.187Z,7.93
2022-10-18T21:48:48.565Z,8.52
2022-10-18T21:51:15.890Z,9.85
2022-10-18T21:53:43.547Z,10.50
2022-10-18T21:56:11.426Z,7.97
2022-10-18T21:58:38.606Z,14.57
2022-10-18T22:01:12.063Z,13.10
2022-10-18T22:03:38.680Z,10.80
2022-10-18T22:06:07.797Z,10.02
2022-10-18T22:08:34.283Z,9.15
2022-10-18T22:11:00.779Z,8.90
2022-10-18T22:13:27.393Z,11.70
2022-10-18T22:15:53.943Z,9.23
2022-10-18T22:18:20.321Z,9.93
2022-10-18T22:20:53.123Z,7.68
2022-10-18T22:23:21.011Z,11.75
2022-10-18T22:25:47.303Z,9.63
2022-10-18T22:28:13.994Z,8.57
2022-10-18T22:30:40.647Z,9.63
2022-10-18T22:33:06.970Z,8.50
2022-10-18T22:35:33.245Z,10.45
2022-10-18T22:37:59.512Z,17.17
2022-10-18T22:40:25.779Z,30.95
2022-10-18T22:42:52.271Z,60.55
2022-10-18T22:45:18.651Z,146.75
2022-10-18T22:47:44.918Z,42.72
2022-10-18T22:50:11.237Z,18.55
2022-10-18T22:52:37.504Z,15.55
2022-10-18T22:55:03.891Z,13.52
2022-10-18T22:57:36.290Z,15.65
2022-10-18T23:00:04.006Z,14.38
2022-10-18T23:02:30.457Z,19.08
2022-10-18T23:04:56.886Z,17.38
2022-10-18T23:07:23.211Z,12.90
2022-10-18T23:09:49.487Z,17.60
2022-10-18T23:12:15.772Z,19.50
2022-10-18T23:14:42.043Z,21.25
2022-10-18T23:17:08.306Z,17.27
2022-10-18T23:19:34.558Z,21.55
2022-10-18T23:22:00.959Z,21.45
2022-10-18T23:24:27.262Z,22.02
2022-10-18T23:26:53.548Z,15.05
2022-10-18T23:29:19.898Z,40.08
2022-10-18T23:31:46.148Z,34.35
2022-10-18T23:34:12.448Z,20.10
2022-10-18T23:36:38.800Z,31.63
2022-10-18T23:39:06.112Z,22.35
2022-10-18T23:41:32.409Z,20.10
2022-10-18T23:43:58.680Z,50.78
2022-10-18T23:46:24.978Z,30.85
2022-10-18T23:48:51.238Z,73.00
2022-10-18T23:51:17.906Z,130.48
2022-10-18T23:53:44.206Z,100.30
2022-10-18T23:56:11.689Z,80.15
2022-10-18T23:58:38.152Z,69.55
